createdAt,value
2019-05-04T00:02:07.351Z,9.70
2019-05-04T00:04:38.289Z,8.50
2019-05-04T00:07:06.723Z,12.70
2019-05-04T00:09:35.407Z,17.27
2019-05-04T00:12:04.782Z,19.67
2019-05-04T00:14:35.036Z,18.43
2019-05-04T00:17:05.353Z,11.97
2019-05-04T00:19:35.171Z,10.43
2019-05-04T00:22:04.945Z,9.37
2019-05-04T00:24:35.190Z,8.23
2019-05-04T00:27:04.692Z,9.03
2019-05-04T00:29:35.263Z,7.23
2019-05-04T00:32:05.084Z,7.70
2019-05-04T00:34:38.039Z,7.63
2019-05-04T00:37:08.404Z,8.13
2019-05-04T00:39:37.647Z,7.30
2019-05-04T00:42:06.725Z,7.00
2019-05-04T00:44:35.208Z,8.00
2019-05-04T00:47:05.009Z,8.00
2019-05-04T00:49:34.758Z,8.27
2019-05-04T00:52:05.647Z,8.53
2019-05-04T00:54:35.570Z,9.10
2019-05-04T00:57:05.151Z,8.30
2019-05-04T00:59:34.957Z,9.00
2019-05-04T01:02:06.067Z,8.80
2019-05-04T01:04:36.140Z,8.90
2019-05-04T01:07:17.703Z,8.23
2019-05-04T01:09:36.858Z,8.90
2019-05-04T01:12:05.944Z,7.20
2019-05-04T01:14:35.117Z,8.80
2019-05-04T01:17:05.415Z,7.87
2019-05-04T01:19:35.591Z,8.10
2019-05-04T01:22:05.235Z,8.40
2019-05-04T01:24:34.791Z,9.57
2019-05-04T01:27:05.712Z,8.50
2019-05-04T01:29:35.382Z,9.10
2019-05-04T01:32:05.263Z,9.60
2019-05-04T01:34:40.880Z,8.13
2019-05-04T01:37:32.552Z,9.33
2019-05-04T01:40:01.631Z,8.37
2019-05-04T01:42:30.355Z,8.77
2019-05-04T01:44:58.816Z,9.20
2019-05-04T01:47:27.508Z,9.30
2019-05-04T01:49:55.913Z,8.30
2019-05-04T01:52:25.711Z,10.17
2019-05-04T01:54:54.865Z,9.10
2019-05-04T01:57:35.194Z,8.97
2019-05-04T02:00:07.544Z,8.60
2019-05-04T02:02:35.989Z,9.77
2019-05-04T02:05:06.949Z,9.20
2019-05-04T02:07:44.641Z,9.47
2019-05-04T02:10:06.313Z,9.90
2019-05-04T02:12:35.275Z,9.80
2019-05-04T02:15:05.687Z,9.13
2019-05-04T02:17:34.837Z,11.20
2019-05-04T02:20:05.642Z,10.27
2019-05-04T02:22:38.963Z,9.87
2019-05-04T02:25:10.271Z,11.27
2019-05-04T02:27:40.324Z,11.57
2019-05-04T02:30:16.551Z,11.37
2019-05-04T02:32:46.565Z,10.17
2019-05-04T02:35:16.717Z,11.40
2019-05-04T02:38:03.155Z,10.43
2019-05-04T02:40:33.031Z,11.00
2019-05-04T02:42:57.935Z,11.43
2019-05-04T02:45:26.749Z,11.03
2019-05-04T02:47:57.219Z,11.07
2019-05-04T02:50:35.751Z,10.53
2019-05-04T02:53:05.163Z,11.63
2019-05-04T02:55:35.907Z,12.20
2019-05-04T02:58:05.963Z,11.77
2019-05-04T03:00:36.400Z,11.80
2019-05-04T03:03:07.782Z,11.47
2019-05-04T03:05:36.205Z,12.63
2019-05-04T03:08:05.541Z,12.37
2019-05-04T03:10:36.332Z,11.97
2019-05-04T03:13:06.487Z,12.67
2019-05-04T03:15:36.447Z,13.33
2019-05-04T03:18:19.246Z,15.33
2019-05-04T03:21:06.220Z,13.77
2019-05-04T03:23:36.764Z,15.17
2019-05-04T03:26:05.317Z,14.90
2019-05-04T03:28:35.891Z,14.50
2019-05-04T03:31:08.692Z,14.90
2019-05-04T03:33:38.167Z,15.73
2019-05-04T03:36:14.112Z,15.50
2019-05-04T03:38:49.610Z,15.37
2019-05-04T03:41:07.981Z,17.00
2019-05-04T03:43:36.477Z,17.23
2019-05-04T03:46:07.646Z,16.50
2019-05-04T03:48:40.440Z,16.13
2019-05-04T03:51:15.502Z,18.70
2019-05-04T03:53:45.715Z,18.60
2019-05-04T03:56:16.406Z,18.30
2019-05-04T03:58:46.755Z,17.27
2019-05-04T04:01:16.098Z,19.33
2019-05-04T04:03:46.173Z,18.70
2019-05-04T04:06:16.042Z,20.33
2019-05-04T04:08:47.156Z,19.70
2019-05-04T04:11:15.728Z,17.30
2019-05-04T04:13:45.439Z,18.60
2019-05-04T04:16:15.721Z,19.50
2019-05-04T04:18:45.570Z,19.43
2019-05-04T04:21:15.507Z,17.67
2019-05-04T04:23:56.268Z,17.37
2019-05-04T04:26:26.990Z,20.03
2019-05-04T04:28:57.498Z,22.43
2019-05-04T04:31:26.404Z,21.07
2019-05-04T04:34:00.681Z,20.50
2019-05-04T04:36:25.867Z,20.40
2019-05-04T04:38:56.536Z,12.77
2019-05-04T04:41:25.777Z,8.40
2019-05-04T04:43:56.278Z,8.13
2019-05-04T04:46:25.962Z,7.90
2019-05-04T04:48:55.555Z,5.63
2019-05-04T04:51:26.432Z,5.40
2019-05-04T04:53:56.355Z,4.10
2019-05-04T04:56:26.815Z,2.80
2019-05-04T04:59:15.076Z,3.60
2019-05-04T05:01:47.886Z,2.60
2019-05-04T05:04:15.084Z,2.57
2019-05-04T05:06:46.594Z,2.10
2019-05-04T05:09:15.290Z,1.70
2019-05-04T05:11:45.492Z,1.70
2019-05-04T05:14:14.387Z,1.47
2019-05-04T05:16:44.731Z,1.10
2019-05-04T05:19:15.150Z,0.93
2019-05-04T05:21:44.830Z,1.00
2019-05-04T05:24:14.868Z,1.13
2019-05-04T05:26:45.214Z,0.50
2019-05-04T05:29:15.162Z,0.67
2019-05-04T05:31:51.204Z,0.57
2019-05-04T05:34:21.266Z,0.53
2019-05-04T05:36:51.548Z,0.50
2019-05-04T05:39:19.985Z,0.50
2019-05-04T05:41:49.867Z,0.40
2019-05-04T05:44:19.273Z,0.73
2019-05-04T05:46:49.491Z,0.40
2019-05-04T05:49:32.295Z,0.87
2019-05-04T05:52:17.644Z,0.50
2019-05-04T05:54:54.498Z,0.63
2019-05-04T05:57:41.763Z,0.60
2019-05-04T06:00:12.308Z,0.60
2019-05-04T06:02:59.003Z,0.47
2019-05-04T06:05:31.117Z,0.40
2019-05-04T06:08:05.534Z,0.40
2019-05-04T06:10:35.211Z,0.37
2019-05-04T06:13:06.035Z,0.40
2019-05-04T06:15:55.583Z,0.30
2019-05-04T06:18:42.269Z,0.40
2019-05-04T06:21:24.719Z,0.40
2019-05-04T06:23:58.083Z,0.37
2019-05-04T06:26:30.950Z,0.40
2019-05-04T06:29:08.466Z,0.30
2019-05-04T06:31:46.855Z,0.23
2019-05-04T06:34:14.242Z,0.40
2019-05-04T06:37:04.736Z,0.30
2019-05-04T06:39:34.897Z,0.37
2019-05-04T06:42:06.874Z,0.30
2019-05-04T06:44:52.090Z,0.40
2019-05-04T06:47:16.140Z,0.50
2019-05-04T06:49:46.736Z,0.33
2019-05-04T06:52:18.366Z,0.30
2019-05-04T06:54:52.858Z,0.30
2019-05-04T06:57:43.897Z,0.30
2019-05-04T07:00:13.105Z,0.30
2019-05-04T07:02:41.282Z,0.30
2019-05-04T07:05:11.428Z,0.40
2019-05-04T07:07:40.788Z,0.40
2019-05-04T07:10:10.206Z,0.40
2019-05-04T07:12:40.810Z,0.40
2019-05-04T07:15:14.591Z,0.30
2019-05-04T07:17:41.188Z,0.43
2019-05-04T07:20:10.248Z,0.50
2019-05-04T07:22:40.787Z,0.70
2019-05-04T07:25:14.854Z,0.40
2019-05-04T07:27:40.791Z,0.77
2019-05-04T07:30:09.840Z,0.87
2019-05-04T07:32:38.734Z,0.70
2019-05-04T07:35:07.412Z,0.87
2019-05-04T07:37:46.499Z,0.90
2019-05-04T07:40:33.142Z,0.97
2019-05-04T07:43:00.127Z,0.70
2019-05-04T07:45:30.610Z,3.00
2019-05-04T07:47:59.496Z,2.23
2019-05-04T07:50:29.391Z,0.90
2019-05-04T07:52:59.808Z,1.60
2019-05-04T07:55:28.001Z,5.43
2019-05-04T07:57:59.732Z,2.10
2019-05-04T08:00:26.657Z,1.60
2019-05-04T08:02:55.977Z,1.33
2019-05-04T08:05:29.286Z,1.33
2019-05-04T08:07:55.813Z,1.80
2019-05-04T08:10:28.712Z,2.40
2019-05-04T08:13:01.983Z,1.70
2019-05-04T08:15:29.537Z,2.70
2019-05-04T08:17:56.263Z,1.90
2019-05-04T08:20:25.288Z,1.57
2019-05-04T08:22:59.923Z,1.30
2019-05-04T08:25:25.096Z,1.40
2019-05-04T08:27:54.720Z,1.73
2019-05-04T08:30:25.043Z,1.67
2019-05-04T08:32:54.766Z,1.53
2019-05-04T08:35:29.129Z,1.20
2019-05-04T08:37:55.512Z,1.10
2019-05-04T08:40:25.035Z,1.00
2019-05-04T08:42:54.857Z,1.03
2019-05-04T08:45:25.314Z,2.63
2019-05-04T08:47:57.408Z,2.50
2019-05-04T08:50:26.373Z,2.20
2019-05-04T08:53:06.249Z,1.43
2019-05-04T08:55:46.646Z,1.50
2019-05-04T08:58:28.842Z,1.27
2019-05-04T09:00:57.222Z,1.47
2019-05-04T09:03:26.668Z,1.60
2019-05-04T09:06:11.623Z,0.70
2019-05-04T09:08:26.219Z,1.03
2019-05-04T09:11:08.851Z,1.50
2019-05-04T09:13:26.576Z,1.10
2019-05-04T09:15:59.403Z,0.93
2019-05-04T09:18:29.452Z,1.73
2019-05-04T09:20:57.910Z,1.17
2019-05-04T09:23:28.197Z,2.10
2019-05-04T09:25:57.270Z,1.37
2019-05-04T09:28:26.627Z,1.20
2019-05-04T09:31:01.526Z,1.10
2019-05-04T09:33:32.275Z,0.77
2019-05-04T09:36:03.493Z,1.57
2019-05-04T09:38:27.135Z,1.30
2019-05-04T09:40:58.040Z,1.23
2019-05-04T09:43:34.620Z,1.30
2019-05-04T09:46:00.155Z,1.20
2019-05-04T09:48:27.141Z,2.23
2019-05-04T09:50:57.525Z,1.90
2019-05-04T09:53:33.177Z,1.93
2019-05-04T09:55:56.058Z,1.37
2019-05-04T09:58:26.515Z,1.20
2019-05-04T10:00:56.510Z,1.27
2019-05-04T10:03:26.219Z,1.30
2019-05-04T10:05:55.647Z,1.37
2019-05-04T10:08:25.354Z,1.30
2019-05-04T10:10:55.658Z,1.40
2019-05-04T10:13:27.278Z,1.50
2019-05-04T10:16:15.155Z,1.10
2019-05-04T10:18:45.556Z,1.10
2019-05-04T10:21:14.605Z,1.20
2019-05-04T10:23:45.048Z,1.37
2019-05-04T10:26:25.241Z,1.40
2019-05-04T10:28:58.246Z,1.50
2019-05-04T10:31:26.665Z,1.00
2019-05-04T10:33:55.743Z,2.53
2019-05-04T10:36:24.806Z,1.53
2019-05-04T10:38:54.834Z,1.13
2019-05-04T10:41:24.984Z,1.60
2019-05-04T10:43:55.076Z,1.50
2019-05-04T10:46:25.226Z,1.27
2019-05-04T10:48:54.348Z,1.93
2019-05-04T10:51:25.363Z,2.50
2019-05-04T10:53:54.378Z,2.80
2019-05-04T10:56:24.947Z,2.43
2019-05-04T10:58:54.399Z,3.03
2019-05-04T11:01:25.160Z,3.00
2019-05-04T11:03:54.810Z,3.40
2019-05-04T11:06:24.743Z,3.70
2019-05-04T11:08:54.542Z,4.57
2019-05-04T11:11:25.947Z,3.87
2019-05-04T11:14:02.762Z,3.90
2019-05-04T11:16:24.579Z,3.30
2019-05-04T11:18:54.632Z,3.43
2019-05-04T11:21:24.864Z,4.23
2019-05-04T11:23:55.133Z,4.50
2019-05-04T11:26:37.925Z,4.50
2019-05-04T11:29:06.400Z,4.50
2019-05-04T11:31:35.125Z,5.60
2019-05-04T11:34:05.085Z,4.70
2019-05-04T11:36:35.364Z,5.13
2019-05-04T11:39:06.694Z,3.50
2019-05-04T11:41:35.384Z,4.97
2019-05-04T11:44:04.761Z,4.00
2019-05-04T11:46:34.826Z,4.20
2019-05-04T11:49:04.596Z,3.90
2019-05-04T11:51:34.733Z,4.03
2019-05-04T11:54:04.886Z,3.57
2019-05-04T11:56:34.906Z,4.13
2019-05-04T11:59:05.467Z,3.73
2019-05-04T12:01:34.512Z,5.17
2019-05-04T12:04:07.403Z,4.97
2019-05-04T12:06:44.609Z,3.97
2019-05-04T12:09:24.327Z,3.53
2019-05-04T12:11:54.304Z,4.90
2019-05-04T12:14:25.169Z,4.50
2019-05-04T12:16:54.678Z,4.23
2019-05-04T12:19:24.493Z,4.10
2019-05-04T12:21:55.207Z,4.10
2019-05-04T12:24:24.913Z,4.03
2019-05-04T12:26:55.112Z,4.13
2019-05-04T12:29:24.522Z,4.00
2019-05-04T12:31:54.901Z,4.70
2019-05-04T12:34:25.181Z,4.47
2019-05-04T12:36:55.019Z,4.23
2019-05-04T12:39:24.790Z,4.10
2019-05-04T12:41:54.264Z,4.30
2019-05-04T12:44:24.603Z,4.00
2019-05-04T12:46:55.323Z,4.37
2019-05-04T12:49:25.776Z,4.63
2019-05-04T12:51:55.357Z,4.70
2019-05-04T12:54:24.887Z,5.20
2019-05-04T12:56:55.325Z,4.97
2019-05-04T12:59:25.867Z,4.83
2019-05-04T13:01:54.634Z,4.73
2019-05-04T13:04:24.396Z,4.40
2019-05-04T13:06:55.278Z,4.60
2019-05-04T13:09:24.290Z,4.10
2019-05-04T13:11:54.839Z,4.43
2019-05-04T13:14:25.183Z,3.53
2019-05-04T13:16:54.387Z,4.37
2019-05-04T13:19:22.795Z,4.20
2019-05-04T13:21:51.571Z,4.50
2019-05-04T13:24:20.006Z,4.20
2019-05-04T13:26:49.021Z,4.20
2019-05-04T13:29:17.443Z,4.43
2019-05-04T13:31:46.143Z,5.53
2019-05-04T13:34:14.878Z,4.63
2019-05-04T13:36:45.151Z,4.20
2019-05-04T13:39:15.308Z,3.77
2019-05-04T13:41:44.880Z,3.60
2019-05-04T13:44:22.127Z,4.03
2019-05-04T13:46:44.562Z,3.73
2019-05-04T13:49:14.706Z,3.63
2019-05-04T13:51:45.269Z,3.90
2019-05-04T13:54:15.711Z,4.63
2019-05-04T13:56:45.761Z,3.80
2019-05-04T13:59:16.218Z,4.37
2019-05-04T14:01:49.149Z,4.30
2019-05-04T14:04:22.342Z,4.60
2019-05-04T14:06:51.517Z,4.13
2019-05-04T14:09:21.675Z,4.40
2019-05-04T14:11:50.078Z,4.03
2019-05-04T14:14:18.800Z,4.97
2019-05-04T14:16:47.515Z,4.40
2019-05-04T14:19:16.340Z,3.50
2019-05-04T14:21:45.079Z,3.33
2019-05-04T14:24:14.561Z,3.40
2019-05-04T14:26:44.447Z,3.20
2019-05-04T14:29:15.993Z,2.80
2019-05-04T14:31:45.625Z,2.07
2019-05-04T14:34:15.155Z,1.60
2019-05-04T14:36:45.315Z,1.17
2019-05-04T14:39:14.810Z,1.40
2019-05-04T14:41:44.523Z,1.07
2019-05-04T14:44:15.665Z,1.10
2019-05-04T14:46:55.488Z,1.00
2019-05-04T14:49:24.992Z,1.30
2019-05-04T14:51:54.294Z,1.60
2019-05-04T14:54:22.757Z,1.77
2019-05-04T14:56:51.187Z,2.40
2019-05-04T14:59:19.851Z,1.93
2019-05-04T15:01:48.514Z,2.07
2019-05-04T15:04:16.918Z,2.00
2019-05-04T15:06:45.359Z,2.40
2019-05-04T15:09:14.897Z,2.10
2019-05-04T15:11:45.168Z,2.37
2019-05-04T15:14:14.082Z,3.27
2019-05-04T15:16:42.981Z,2.40
2019-05-04T15:19:14.588Z,2.70
2019-05-04T15:21:44.531Z,1.93
2019-05-04T15:24:14.338Z,1.90
2019-05-04T15:26:44.799Z,1.90
2019-05-04T15:29:14.007Z,2.10
2019-05-04T15:31:44.574Z,2.23
2019-05-04T15:34:14.580Z,1.93
2019-05-04T15:36:44.779Z,1.53
2019-05-04T15:39:15.091Z,1.57
2019-05-04T15:41:44.303Z,1.40
2019-05-04T15:44:14.742Z,1.57
2019-05-04T15:46:44.467Z,1.80
2019-05-04T15:49:14.986Z,1.77
2019-05-04T15:51:47.811Z,2.10
2019-05-04T15:54:20.959Z,1.53
2019-05-04T15:56:57.242Z,1.53
2019-05-04T15:59:34.366Z,1.33
2019-05-04T16:02:04.256Z,1.30
2019-05-04T16:04:34.727Z,1.33
2019-05-04T16:07:05.041Z,0.93
2019-05-04T16:09:35.452Z,1.23
2019-05-04T16:12:04.406Z,1.00
2019-05-04T16:14:46.082Z,0.80
2019-05-04T16:17:04.765Z,1.30
2019-05-04T16:19:34.795Z,1.00
2019-05-04T16:22:04.293Z,1.10
2019-05-04T16:24:34.514Z,1.10
2019-05-04T16:27:04.098Z,1.20
2019-05-04T16:29:34.448Z,1.50
2019-05-04T16:32:05.020Z,1.03
2019-05-04T16:34:33.565Z,1.47
2019-05-04T16:37:02.085Z,1.53
2019-05-04T16:39:31.242Z,1.83
2019-05-04T16:41:59.656Z,2.17
2019-05-04T16:44:28.365Z,4.83
2019-05-04T16:46:56.832Z,2.00
2019-05-04T16:49:25.234Z,2.30
2019-05-04T16:51:57.999Z,1.90
2019-05-04T16:54:26.623Z,1.60
2019-05-04T16:56:55.395Z,1.53
2019-05-04T16:59:25.406Z,1.63
2019-05-04T17:01:55.595Z,1.60
2019-05-04T17:04:28.452Z,1.43
2019-05-04T17:06:57.171Z,1.80
2019-05-04T17:09:25.864Z,1.57
2019-05-04T17:11:55.393Z,1.57
2019-05-04T17:14:25.177Z,1.40
2019-05-04T17:16:54.973Z,1.77
2019-05-04T17:19:24.946Z,1.10
2019-05-04T17:22:07.971Z,1.30
2019-05-04T17:24:39.353Z,1.20
2019-05-04T17:27:12.441Z,1.50
2019-05-04T17:29:41.127Z,1.50
2019-05-04T17:32:09.916Z,1.60
2019-05-04T17:34:41.688Z,1.67
2019-05-04T17:37:12.102Z,1.90
2019-05-04T17:39:40.881Z,1.93
2019-05-04T17:42:14.111Z,1.33
2019-05-04T17:44:45.215Z,1.37
2019-05-04T17:47:14.173Z,1.53
2019-05-04T17:49:44.817Z,1.57
2019-05-04T17:52:15.142Z,1.77
2019-05-04T17:54:43.646Z,2.73
2019-05-04T17:57:14.601Z,2.30
2019-05-04T18:00:00.885Z,2.17
2019-05-04T18:02:31.199Z,1.90
2019-05-04T18:05:01.495Z,1.80
2019-05-04T18:07:30.190Z,1.83
2019-05-04T18:09:58.627Z,1.50
2019-05-04T18:12:29.021Z,2.00
2019-05-04T18:14:59.377Z,1.80
2019-05-04T18:17:48.004Z,1.90
2019-05-04T18:20:17.102Z,1.70
2019-05-04T18:22:45.676Z,2.20
2019-05-04T18:25:14.264Z,1.60
2019-05-04T18:27:42.705Z,2.47
2019-05-04T18:30:11.848Z,2.23
2019-05-04T18:32:40.267Z,2.30
2019-05-04T18:35:09.053Z,2.40
2019-05-04T18:37:37.460Z,2.93
2019-05-04T18:40:06.699Z,2.20
2019-05-04T18:42:36.752Z,2.80
2019-05-04T18:45:16.508Z,1.80
2019-05-04T18:48:04.200Z,1.63
2019-05-04T18:50:34.761Z,2.07
2019-05-04T18:53:05.219Z,1.90
2019-05-04T18:55:33.595Z,2.07
2019-05-04T18:58:05.171Z,2.10
2019-05-04T19:00:35.128Z,2.00
2019-05-04T19:03:06.963Z,1.77
2019-05-04T19:05:37.311Z,1.87
2019-05-04T19:08:07.603Z,2.07
2019-05-04T19:10:37.328Z,2.40
2019-05-04T19:13:06.257Z,2.40
2019-05-04T19:15:35.033Z,3.03
2019-05-04T19:18:04.603Z,2.17
2019-05-04T19:20:33.359Z,2.20
2019-05-04T19:23:01.828Z,2.50
2019-05-04T19:25:30.368Z,3.03
2019-05-04T19:27:59.123Z,4.00
2019-05-04T19:30:28.197Z,3.07
2019-05-04T19:32:56.738Z,3.80
2019-05-04T19:35:25.606Z,3.70
2019-05-04T19:37:56.540Z,2.67
2019-05-04T19:40:35.468Z,2.90
2019-05-04T19:43:08.848Z,2.67
2019-05-04T19:45:39.553Z,2.47
2019-05-04T19:48:09.597Z,2.90
2019-05-04T19:50:39.168Z,2.53
2019-05-04T19:53:07.682Z,3.43
2019-05-04T19:55:36.159Z,2.50
2019-05-04T19:58:04.976Z,3.20
2019-05-04T20:00:39.068Z,2.90
2019-05-04T20:03:07.447Z,3.07
2019-05-04T20:05:35.923Z,2.80
2019-05-04T20:08:06.419Z,2.70
2019-05-04T20:10:52.394Z,3.30
2019-05-04T20:13:21.153Z,2.87
2019-05-04T20:15:49.698Z,3.57
2019-05-04T20:18:18.114Z,3.80
2019-05-04T20:20:46.654Z,3.83
2019-05-04T20:23:15.138Z,4.70
2019-05-04T20:25:43.574Z,4.70
2019-05-04T20:28:12.297Z,7.10
2019-05-04T20:30:40.925Z,5.17
2019-05-04T20:33:09.701Z,5.43
2019-05-04T20:35:38.136Z,4.93
2019-05-04T20:38:06.547Z,4.10
2019-05-04T20:40:35.105Z,5.03
2019-05-04T20:43:04.563Z,4.20
2019-05-04T20:45:35.234Z,4.60
2019-05-04T20:48:05.916Z,3.80
2019-05-04T20:50:35.248Z,5.00
2019-05-04T20:53:21.108Z,4.50
2019-05-04T20:55:51.070Z,3.97
2019-05-04T20:58:19.505Z,4.40
2019-05-04T21:00:48.158Z,4.83
2019-05-04T21:03:34.787Z,4.80
2019-05-04T21:06:14.766Z,4.00
2019-05-04T21:08:44.684Z,4.53
2019-05-04T21:11:14.785Z,3.97
2019-05-04T21:13:44.598Z,4.63
2019-05-04T21:16:14.872Z,4.10
2019-05-04T21:18:48.600Z,4.20
2019-05-04T21:21:19.037Z,4.10
2019-05-04T21:23:47.737Z,3.90
2019-05-04T21:26:16.169Z,6.20
2019-05-04T21:28:44.897Z,4.70
2019-05-04T21:31:14.989Z,4.50
2019-05-04T21:33:44.600Z,4.20
2019-05-04T21:36:14.976Z,5.30
2019-05-04T21:38:45.437Z,4.87
2019-05-04T21:41:14.600Z,5.37
2019-05-04T21:43:44.873Z,4.33
2019-05-04T21:46:14.915Z,6.17
2019-05-04T21:49:00.316Z,4.80
2019-05-04T21:51:28.953Z,3.83
2019-05-04T21:53:57.688Z,5.00
2019-05-04T21:56:26.309Z,5.13
2019-05-04T21:58:55.126Z,4.77
2019-05-04T22:01:38.069Z,4.30
2019-05-04T22:04:11.087Z,4.70
2019-05-04T22:06:39.964Z,4.30
2019-05-04T22:09:08.665Z,4.70
2019-05-04T22:11:37.165Z,4.20
2019-05-04T22:14:05.845Z,4.37
2019-05-04T22:16:34.928Z,4.77
2019-05-04T22:19:05.274Z,4.60
2019-05-04T22:21:34.593Z,4.73
2019-05-04T22:24:03.342Z,4.67
2019-05-04T22:26:32.079Z,4.23
2019-05-04T22:29:00.497Z,4.53
2019-05-04T22:31:28.946Z,4.23
2019-05-04T22:33:57.413Z,4.37
2019-05-04T22:36:27.445Z,5.30
2019-05-04T22:38:55.879Z,4.97
2019-05-04T22:41:24.869Z,4.73
2019-05-04T22:43:53.300Z,5.47
2019-05-04T22:46:24.123Z,4.83
2019-05-04T22:48:54.433Z,4.47
2019-05-04T22:51:25.030Z,4.50
2019-05-04T22:53:58.126Z,4.80
2019-05-04T22:56:26.535Z,5.03
2019-05-04T22:58:56.605Z,4.70
2019-05-04T23:01:27.214Z,4.90
2019-05-04T23:04:06.457Z,5.63
2019-05-04T23:06:35.465Z,4.90
2019-05-04T23:09:04.970Z,5.03
2019-05-04T23:11:36.031Z,4.00
2019-05-04T23:14:04.620Z,4.10
2019-05-04T23:16:35.727Z,4.17
2019-05-04T23:19:05.858Z,5.00
2019-05-04T23:21:36.630Z,4.50
2019-05-04T23:24:05.359Z,4.40
2019-05-04T23:26:34.823Z,5.00
2019-05-04T23:29:06.066Z,4.87
2019-05-04T23:31:34.828Z,3.80
2019-05-04T23:34:04.633Z,4.83
2019-05-04T23:36:34.879Z,4.60
2019-05-04T23:39:04.709Z,4.40
2019-05-04T23:41:35.349Z,4.50
2019-05-04T23:44:04.471Z,4.27
2019-05-04T23:46:35.780Z,4.00
2019-05-04T23:49:15.980Z,3.87
2019-05-04T23:51:36.249Z,3.87
2019-05-04T23:54:05.593Z,4.90
2019-05-04T23:56:34.868Z,4.07
2019-05-04T23:59:05.479Z,3.90
